David C. Saudale - Rote Airport


Codes: WRKR/RTI
Name: David C. Saudale - Rote Airport
City: Namodale-Rote Island
Country: Indonesia
Elevation: 470 ft.
Website:

Photos at David C. Saudale - Rote Airport


   Photos courtesy of SpottingLog. You can add your own sightings and photos by signing up for a free trial today.



No photos found.

Weather at David C. Saudale - Rote Airport


Time (UTC)DescriptionTempratureWindCloud coverageVisibilityPressureHumidity
16-Jun-2024 00:00Few Clouds27°C13 mph, E19%10000m1013hPa62%
16-Jun-2024 03:00Few Clouds27°C16 mph, E13%10000m1013hPa59%
16-Jun-2024 06:00Few Clouds28°C18 mph, E12%10000m1012hPa57%
16-Jun-2024 09:00Few Clouds26°C16 mph, E14%10000m1012hPa72%
16-Jun-2024 12:00Few Clouds25°C16 mph, E17%10000m1013hPa73%
16-Jun-2024 15:00Overcast Clouds25°C13 mph, E100%10000m1014hPa71%
16-Jun-2024 18:00Broken Clouds25°C13 mph, E73%10000m1013hPa73%
16-Jun-2024 21:00Clear Sky24°C11 mph, E6%10000m1013hPa72%
17-Jun-2024 00:00Clear Sky26°C16 mph, E10%10000m1014hPa65%
17-Jun-2024 03:00Scattered Clouds28°C16 mph, E28%10000m1013hPa58%
17-Jun-2024 06:00Scattered Clouds28°C18 mph, E50%10000m1011hPa59%
17-Jun-2024 09:00Clear Sky26°C16 mph, E5%10000m1011hPa70%
17-Jun-2024 12:00Clear Sky25°C13 mph, E5%10000m1013hPa74%
17-Jun-2024 15:00Few Clouds25°C13 mph, E18%10000m1014hPa71%
17-Jun-2024 18:00Few Clouds25°C13 mph, E13%10000m1013hPa67%
17-Jun-2024 21:00Clear Sky24°C11 mph, E4%10000m1013hPa68%
18-Jun-2024 00:00Clear Sky26°C13 mph, E5%10000m1014hPa61%
18-Jun-2024 03:00Few Clouds28°C16 mph, E19%10000m1013hPa55%
18-Jun-2024 06:00Scattered Clouds28°C16 mph, E49%10000m1011hPa55%
18-Jun-2024 09:00Broken Clouds26°C13 mph, E74%10000m1011hPa64%
18-Jun-2024 12:00Broken Clouds25°C13 mph, E68%10000m1013hPa67%
18-Jun-2024 15:00Overcast Clouds25°C11 mph, E87%10000m1014hPa67%
18-Jun-2024 18:00Overcast Clouds24°C11 mph, E93%10000m1013hPa68%
18-Jun-2024 21:00Scattered Clouds24°C9 mph, E42%10000m1013hPa69%
19-Jun-2024 00:00Few Clouds26°C13 mph, E24%10000m1014hPa61%
19-Jun-2024 03:00Clear Sky28°C13 mph, E4%10000m1012hPa54%
19-Jun-2024 06:00Clear Sky27°C13 mph, E10%10000m1010hPa56%
19-Jun-2024 09:00Broken Clouds25°C13 mph, SE57%10000m1010hPa65%
19-Jun-2024 12:00Scattered Clouds25°C11 mph, SE35%10000m1013hPa69%
19-Jun-2024 15:00Clear Sky24°C11 mph, E9%10000m1012hPa73%
19-Jun-2024 18:00Few Clouds24°C9 mph, SE11%10000m1012hPa76%
19-Jun-2024 21:00Light Rain25°C9 mph, SE59%10000m1012hPa70%
20-Jun-2024 00:00Broken Clouds26°C11 mph, SE69%10000m1014hPa61%
20-Jun-2024 03:00Broken Clouds28°C13 mph, SE52%10000m1013hPa52%
20-Jun-2024 06:00Broken Clouds28°C13 mph, SE51%10000m1011hPa51%
20-Jun-2024 09:00Few Clouds26°C13 mph, SE16%10000m1011hPa60%
20-Jun-2024 12:00Scattered Clouds25°C11 mph, SE30%10000m1013hPa64%
20-Jun-2024 15:00Broken Clouds24°C11 mph, E53%10000m1013hPa67%
20-Jun-2024 18:00Scattered Clouds24°C11 mph, E48%10000m1012hPa70%
20-Jun-2024 21:00Scattered Clouds24°C9 mph, E47%10000m1012hPa71%